createdAt,value
2023-05-22T00:01:46.578Z,5.47
2023-05-22T00:04:13.430Z,6.10
2023-05-22T00:06:42.978Z,6.03
2023-05-22T00:09:09.943Z,5.60
2023-05-22T00:11:36.741Z,5.90
2023-05-22T00:14:03.647Z,5.95
2023-05-22T00:16:30.451Z,6.20
2023-05-22T00:18:57.661Z,6.00
2023-05-22T00:21:24.886Z,5.72
2023-05-22T00:23:51.592Z,5.88
2023-05-22T00:26:18.318Z,6.05
2023-05-22T00:28:45.071Z,6.10
2023-05-22T00:31:11.833Z,6.20
2023-05-22T00:33:38.641Z,5.65
2023-05-22T00:36:05.764Z,6.32
2023-05-22T00:38:34.817Z,6.25
2023-05-22T00:41:02.559Z,6.07
2023-05-22T00:43:29.434Z,6.18
2023-05-22T00:45:56.554Z,6.38
2023-05-22T00:48:24.077Z,5.60
2023-05-22T00:50:52.041Z,5.75
2023-05-22T00:53:21.361Z,5.85
2023-05-22T00:55:48.492Z,5.78
2023-05-22T00:58:17.934Z,6.20
2023-05-22T01:00:46.571Z,6.55
2023-05-22T01:03:14.427Z,6.30
2023-05-22T01:05:42.115Z,6.25
2023-05-22T01:08:09.561Z,5.85
2023-05-22T01:10:39.063Z,6.18
2023-05-22T01:13:34.360Z,5.70
2023-05-22T01:16:15.603Z,5.75
2023-05-22T01:19:01.202Z,5.75
2023-05-22T01:21:37.084Z,5.70
2023-05-22T01:24:41.940Z,5.60
2023-05-22T01:27:35.053Z,6.18
2023-05-22T01:30:08.233Z,5.93
2023-05-22T01:32:36.777Z,5.82
2023-05-22T01:35:08.403Z,5.90
2023-05-22T01:37:36.539Z,6.18
2023-05-22T01:40:04.038Z,5.43
2023-05-22T01:42:31.144Z,5.63
2023-05-22T01:44:58.014Z,6.30
2023-05-22T01:47:24.781Z,5.85
2023-05-22T01:49:52.024Z,5.70
2023-05-22T01:52:44.633Z,5.50
2023-05-22T01:55:13.611Z,5.65
2023-05-22T01:57:51.361Z,5.55
2023-05-22T02:00:21.347Z,5.80
2023-05-22T02:02:58.138Z,6.13
2023-05-22T02:05:27.585Z,6.35
2023-05-22T02:07:58.339Z,6.13
2023-05-22T02:10:27.418Z,6.28
2023-05-22T02:12:54.290Z,6.30
2023-05-22T02:15:21.348Z,6.13
2023-05-22T02:17:49.864Z,5.43
2023-05-22T02:20:17.049Z,5.82
2023-05-22T02:22:45.383Z,5.85
2023-05-22T02:25:17.007Z,6.35
2023-05-22T02:27:46.469Z,5.72
2023-05-22T02:30:14.256Z,5.40
2023-05-22T02:32:42.330Z,5.78
2023-05-22T02:35:09.532Z,6.07
2023-05-22T02:37:36.815Z,5.60
2023-05-22T02:40:07.294Z,5.53
2023-05-22T02:42:34.463Z,6.00
2023-05-22T02:45:02.820Z,6.13
2023-05-22T02:47:30.044Z,6.20
2023-05-22T02:49:57.999Z,5.68
2023-05-22T02:52:25.242Z,6.00
2023-05-22T02:54:52.047Z,5.60
2023-05-22T02:57:20.280Z,5.57
2023-05-22T02:59:47.033Z,5.90
2023-05-22T03:02:15.340Z,5.88
2023-05-22T03:04:42.160Z,6.18
2023-05-22T03:07:09.017Z,5.72
2023-05-22T03:09:36.284Z,5.93
2023-05-22T03:12:03.391Z,6.10
2023-05-22T03:14:30.460Z,6.20
2023-05-22T03:16:58.944Z,5.82
2023-05-22T03:19:26.609Z,5.82
2023-05-22T03:21:53.548Z,5.53
2023-05-22T03:24:21.764Z,6.18
2023-05-22T03:26:48.526Z,5.95
2023-05-22T03:29:21.515Z,5.97
2023-05-22T03:31:48.280Z,5.93
2023-05-22T03:34:16.579Z,5.85
2023-05-22T03:36:46.140Z,6.28
2023-05-22T03:39:15.335Z,5.60
2023-05-22T03:41:50.240Z,5.60
2023-05-22T03:44:17.084Z,5.70
2023-05-22T03:46:46.418Z,5.30
2023-05-22T03:49:13.126Z,6.00
2023-05-22T03:51:39.841Z,6.13
2023-05-22T03:54:06.577Z,5.80
2023-05-22T03:56:33.355Z,5.80
2023-05-22T03:59:00.519Z,5.60
2023-05-22T04:01:27.571Z,5.30
2023-05-22T04:03:54.289Z,5.57
2023-05-22T04:06:21.773Z,5.93
2023-05-22T04:08:49.218Z,5.43
2023-05-22T04:11:16.011Z,6.10
2023-05-22T04:13:43.182Z,5.90
2023-05-22T04:16:10.426Z,5.60
2023-05-22T04:18:37.780Z,5.70
2023-05-22T04:21:08.050Z,5.32
2023-05-22T04:23:35.101Z,5.53
2023-05-22T04:26:04.510Z,5.10
2023-05-22T04:28:31.293Z,5.43
2023-05-22T04:30:58.061Z,5.00
2023-05-22T04:33:24.881Z,5.97
2023-05-22T04:35:51.976Z,5.78
2023-05-22T04:38:18.897Z,5.00
2023-05-22T04:40:45.732Z,6.07
2023-05-22T04:43:12.685Z,5.50
2023-05-22T04:45:42.206Z,5.60
2023-05-22T04:48:09.172Z,5.40
2023-05-22T04:50:38.652Z,5.30
2023-05-22T04:53:05.987Z,5.25
2023-05-22T04:55:34.056Z,5.20
2023-05-22T04:58:00.975Z,4.90
2023-05-22T05:00:28.818Z,5.20
2023-05-22T05:02:57.484Z,5.00
2023-05-22T05:05:24.840Z,4.65
2023-05-22T05:07:53.137Z,4.70
2023-05-22T05:10:19.891Z,5.40
2023-05-22T05:12:46.594Z,5.13
2023-05-22T05:15:13.587Z,5.13
2023-05-22T05:17:41.139Z,4.85
2023-05-22T05:20:08.638Z,5.05
2023-05-22T05:22:35.853Z,4.50
2023-05-22T05:25:05.458Z,5.35
2023-05-22T05:27:32.494Z,4.93
2023-05-22T05:29:59.586Z,5.30
2023-05-22T05:32:36.730Z,4.25
2023-05-22T05:35:20.809Z,4.65
2023-05-22T05:38:01.788Z,4.78
2023-05-22T05:40:29.346Z,4.95
2023-05-22T05:42:56.278Z,4.93
2023-05-22T05:45:26.261Z,5.22
2023-05-22T05:47:53.208Z,4.90
2023-05-22T05:50:20.266Z,4.75
2023-05-22T05:52:48.099Z,4.80
2023-05-22T05:55:17.704Z,4.68
2023-05-22T05:57:44.775Z,4.72
2023-05-22T06:00:17.947Z,4.78
2023-05-22T06:02:50.740Z,4.60
2023-05-22T06:05:46.245Z,4.72
2023-05-22T06:08:21.857Z,4.78
2023-05-22T06:10:49.202Z,4.32
2023-05-22T06:13:31.062Z,4.82
2023-05-22T06:16:00.741Z,4.28
2023-05-22T06:18:28.999Z,4.60
2023-05-22T06:20:58.974Z,4.57
2023-05-22T06:23:25.883Z,4.63
2023-05-22T06:25:54.558Z,4.68
2023-05-22T06:28:21.677Z,4.82
2023-05-22T06:30:49.386Z,4.38
2023-05-22T06:33:18.990Z,4.80
2023-05-22T06:35:45.929Z,4.60
2023-05-22T06:38:12.886Z,4.47
2023-05-22T06:40:41.986Z,4.90
2023-05-22T06:43:27.112Z,4.47
2023-05-22T06:45:57.978Z,4.57
2023-05-22T06:48:43.266Z,4.78
2023-05-22T06:51:16.254Z,4.53
2023-05-22T06:53:45.653Z,4.50
2023-05-22T06:56:17.882Z,4.70
2023-05-22T06:58:52.930Z,4.85
2023-05-22T07:01:23.245Z,4.45
2023-05-22T07:04:01.884Z,4.50
2023-05-22T07:06:38.855Z,4.88
2023-05-22T07:09:06.949Z,4.28
2023-05-22T07:11:35.514Z,4.35
2023-05-22T07:14:02.744Z,4.22
2023-05-22T07:16:31.291Z,4.22
2023-05-22T07:18:58.254Z,4.57
2023-05-22T07:21:25.690Z,4.32
2023-05-22T07:23:52.936Z,4.20
2023-05-22T07:26:20.160Z,4.18
2023-05-22T07:28:54.893Z,4.38
2023-05-22T07:31:21.657Z,4.22
2023-05-22T07:33:49.477Z,4.20
2023-05-22T07:36:18.894Z,4.38
2023-05-22T07:38:46.462Z,4.45
2023-05-22T07:41:13.774Z,4.43
2023-05-22T07:43:40.618Z,4.38
2023-05-22T07:46:10.900Z,4.50
2023-05-22T07:48:46.389Z,4.32
2023-05-22T07:51:13.701Z,4.20
2023-05-22T07:53:42.184Z,4.18
2023-05-22T07:56:08.918Z,4.30
2023-05-22T07:58:36.930Z,4.20
2023-05-22T08:01:05.472Z,4.75
2023-05-22T08:03:33.693Z,4.55
2023-05-22T08:06:00.632Z,4.35
2023-05-22T08:08:28.850Z,4.72
2023-05-22T08:11:04.065Z,4.72
2023-05-22T08:13:31.444Z,4.40
2023-05-22T08:16:00.374Z,4.68
2023-05-22T08:18:29.101Z,4.40
2023-05-22T08:20:56.359Z,4.93
2023-05-22T08:23:23.195Z,4.50
2023-05-22T08:25:50.323Z,4.60
2023-05-22T08:28:17.333Z,4.20
2023-05-22T08:30:44.202Z,4.22
2023-05-22T08:33:12.006Z,4.18
2023-05-22T08:35:39.350Z,4.32
2023-05-22T08:38:06.142Z,4.70
2023-05-22T08:40:40.792Z,4.47
2023-05-22T08:43:09.348Z,4.20
2023-05-22T08:45:36.237Z,4.07
2023-05-22T08:48:08.616Z,4.10
2023-05-22T08:50:41.297Z,4.20
2023-05-22T08:53:11.036Z,4.82
2023-05-22T08:55:38.214Z,4.50
2023-05-22T08:58:05.944Z,4.97
2023-05-22T09:00:33.436Z,4.32
2023-05-22T09:03:00.363Z,4.32
2023-05-22T09:05:27.308Z,5.13
2023-05-22T09:08:02.671Z,4.35
2023-05-22T09:10:35.763Z,4.65
2023-05-22T09:13:08.921Z,4.70
2023-05-22T09:15:36.937Z,4.57
2023-05-22T09:18:04.969Z,4.65
2023-05-22T09:20:36.065Z,4.40
2023-05-22T09:23:21.949Z,4.40
2023-05-22T09:25:48.737Z,4.55
2023-05-22T09:28:15.762Z,4.60
2023-05-22T09:30:42.911Z,4.75
2023-05-22T09:33:13.099Z,4.65
2023-05-22T09:35:39.979Z,4.82
2023-05-22T09:38:06.768Z,4.70
2023-05-22T09:40:37.281Z,4.70
2023-05-22T09:43:08.688Z,4.95
2023-05-22T09:45:36.424Z,4.75
2023-05-22T09:48:04.178Z,4.50
2023-05-22T09:50:31.583Z,4.97
2023-05-22T09:53:03.163Z,4.68
2023-05-22T09:55:32.036Z,4.60
2023-05-22T09:58:04.183Z,5.20
2023-05-22T10:00:34.220Z,5.00
2023-05-22T10:03:07.740Z,5.20
2023-05-22T10:05:37.943Z,5.13
2023-05-22T10:08:14.255Z,6.10
2023-05-22T10:10:43.243Z,6.22
2023-05-22T10:13:11.245Z,5.90
2023-05-22T10:15:38.668Z,5.55
2023-05-22T10:18:05.920Z,6.57
2023-05-22T10:20:32.995Z,6.15
2023-05-22T10:23:02.496Z,6.47
2023-05-22T10:25:30.224Z,5.53
2023-05-22T10:27:58.908Z,5.70
2023-05-22T10:30:36.492Z,5.68
2023-05-22T10:33:56.314Z,4.95
2023-05-22T10:36:32.861Z,5.30
2023-05-22T10:39:13.100Z,5.72
2023-05-22T10:41:40.614Z,5.50
2023-05-22T10:44:07.443Z,5.90
2023-05-22T10:46:34.591Z,5.80
2023-05-22T10:49:01.471Z,5.97
2023-05-22T10:51:28.386Z,5.60
2023-05-22T10:54:07.913Z,5.68
2023-05-22T10:56:35.955Z,5.55
2023-05-22T10:59:05.349Z,6.25
2023-05-22T11:01:37.710Z,5.72
2023-05-22T11:04:12.185Z,6.30
2023-05-22T11:06:42.209Z,6.30
2023-05-22T11:09:28.891Z,6.10
2023-05-22T11:14:41.192Z,6.00
2023-05-22T11:17:08.451Z,5.93
2023-05-22T11:19:35.365Z,5.95
2023-05-22T11:22:04.922Z,6.05
2023-05-22T11:24:34.866Z,5.70
2023-05-22T11:27:07.145Z,6.50
2023-05-22T11:29:34.176Z,6.38
2023-05-22T11:32:01.896Z,5.93
2023-05-22T11:34:29.262Z,6.07
2023-05-22T11:36:59.810Z,5.85
2023-05-22T11:39:27.254Z,5.57
2023-05-22T11:41:54.432Z,5.90
2023-05-22T11:44:22.275Z,5.82
2023-05-22T11:46:49.219Z,5.40
2023-05-22T11:49:17.296Z,5.93
2023-05-22T11:51:44.502Z,6.35
2023-05-22T11:54:11.687Z,5.85
2023-05-22T11:56:38.433Z,6.38
2023-05-22T11:59:05.611Z,5.97
2023-05-22T12:01:32.522Z,6.10
2023-05-22T12:03:59.342Z,6.30
2023-05-22T12:06:26.381Z,6.55
2023-05-22T12:08:53.330Z,6.30
2023-05-22T12:11:20.103Z,6.05
2023-05-22T12:13:46.873Z,6.13
2023-05-22T12:16:23.702Z,6.15
2023-05-22T12:18:54.495Z,6.68
2023-05-22T12:21:21.728Z,6.35
2023-05-22T12:23:50.316Z,7.05
2023-05-22T12:26:17.588Z,6.85
2023-05-22T12:28:44.510Z,6.82
2023-05-22T12:31:11.665Z,7.32
2023-05-22T12:33:40.504Z,7.10
2023-05-22T12:36:09.147Z,7.50
2023-05-22T12:38:38.714Z,7.22
2023-05-22T12:41:05.998Z,7.00
2023-05-22T12:43:32.956Z,7.18
2023-05-22T12:46:01.040Z,7.30
2023-05-22T12:48:29.332Z,8.02
2023-05-22T12:50:56.210Z,7.57
2023-05-22T12:53:23.020Z,7.68
2023-05-22T12:55:49.783Z,7.80
2023-05-22T12:58:16.626Z,7.40
2023-05-22T13:00:43.408Z,7.50
2023-05-22T13:03:12.058Z,7.70
2023-05-22T13:05:38.994Z,7.90
2023-05-22T13:08:06.021Z,7.80
2023-05-22T13:10:32.795Z,7.35
2023-05-22T13:12:59.500Z,7.22
2023-05-22T13:15:29.441Z,7.65
2023-05-22T13:17:56.871Z,7.30
2023-05-22T13:20:23.771Z,7.55
2023-05-22T13:22:50.654Z,6.90
2023-05-22T13:25:19.128Z,7.63
2023-05-22T13:27:46.361Z,7.40
2023-05-22T13:30:13.489Z,7.07
2023-05-22T13:32:40.367Z,7.13
2023-05-22T13:35:07.404Z,8.05
2023-05-22T13:37:34.210Z,7.72
2023-05-22T13:40:01.031Z,8.35
2023-05-22T13:42:27.917Z,8.38
2023-05-22T13:44:54.696Z,7.82
2023-05-22T13:47:23.108Z,8.18
2023-05-22T13:49:50.466Z,8.43
2023-05-22T13:52:17.478Z,8.02
2023-05-22T13:54:44.223Z,8.02
2023-05-22T13:57:11.221Z,7.10
2023-05-22T13:59:37.953Z,8.15
2023-05-22T14:02:05.008Z,7.97
2023-05-22T14:04:31.759Z,7.45
2023-05-22T14:06:58.588Z,8.15
2023-05-22T14:09:25.701Z,7.50
2023-05-22T14:11:52.454Z,8.13
2023-05-22T14:14:23.762Z,8.25
2023-05-22T14:16:51.669Z,7.75
2023-05-22T14:19:19.974Z,7.70
2023-05-22T14:21:49.522Z,8.40
2023-05-22T14:24:16.385Z,7.70
2023-05-22T14:26:43.582Z,7.50
2023-05-22T14:29:11.725Z,7.43
2023-05-22T14:31:51.464Z,7.40
2023-05-22T14:34:19.018Z,7.28
2023-05-22T14:36:46.408Z,7.80
2023-05-22T14:39:13.147Z,7.43
2023-05-22T14:41:39.855Z,8.07
2023-05-22T14:44:06.690Z,7.22
2023-05-22T14:46:33.529Z,7.45
2023-05-22T14:49:00.364Z,7.35
2023-05-22T14:51:27.061Z,7.57
2023-05-22T14:53:53.829Z,7.53
2023-05-22T14:56:21.732Z,7.28
2023-05-22T14:58:48.616Z,7.03
2023-05-22T15:01:15.557Z,6.80
2023-05-22T15:03:42.408Z,7.07
2023-05-22T15:06:09.182Z,7.30
2023-05-22T15:08:36.742Z,7.10
2023-05-22T15:11:03.527Z,7.10
2023-05-22T15:13:30.276Z,7.05
2023-05-22T15:15:58.348Z,6.78
2023-05-22T15:18:27.164Z,7.50
2023-05-22T15:20:54.072Z,6.78
2023-05-22T15:23:25.027Z,7.13
2023-05-22T15:25:55.435Z,7.10
2023-05-22T15:28:22.321Z,7.05
2023-05-22T15:30:49.141Z,6.95
2023-05-22T15:33:16.470Z,6.32
2023-05-22T15:35:46.649Z,6.57
2023-05-22T15:38:15.451Z,6.90
2023-05-22T15:40:43.534Z,7.28
2023-05-22T15:43:10.513Z,6.60
2023-05-22T15:45:37.651Z,6.78
2023-05-22T15:48:05.582Z,6.00
2023-05-22T15:50:33.601Z,6.07
2023-05-22T15:53:00.810Z,6.40
2023-05-22T15:55:28.137Z,6.22
2023-05-22T15:57:55.030Z,6.10
2023-05-22T16:00:22.041Z,6.70
2023-05-22T16:02:49.399Z,7.00
2023-05-22T16:05:16.361Z,6.63
2023-05-22T16:07:43.218Z,5.63
2023-05-22T16:10:10.662Z,4.85
2023-05-22T16:12:39.824Z,5.53
2023-05-22T16:15:07.426Z,5.65
2023-05-22T16:17:34.254Z,5.57
2023-05-22T16:20:01.199Z,5.97
2023-05-22T16:22:40.315Z,9.95
2023-05-22T16:27:42.246Z,6.40
2023-05-22T16:30:11.026Z,7.35
2023-05-22T16:32:38.160Z,5.45
2023-05-22T16:35:05.508Z,5.80
2023-05-22T16:37:33.411Z,5.60
2023-05-22T16:40:00.328Z,5.95
2023-05-22T16:42:27.267Z,6.10
2023-05-22T16:44:54.084Z,5.40
2023-05-22T16:47:21.591Z,5.75
2023-05-22T16:49:48.428Z,6.55
2023-05-22T16:52:16.384Z,5.97
2023-05-22T16:54:43.109Z,5.90
2023-05-22T16:57:09.862Z,5.40
2023-05-22T16:59:36.567Z,5.90
2023-05-22T17:02:03.758Z,6.10
2023-05-22T17:04:31.119Z,5.68
2023-05-22T17:06:57.843Z,22.08
2023-05-22T17:09:24.604Z,40.60
2023-05-22T17:11:51.356Z,33.65
2023-05-22T17:14:18.229Z,14.57
2023-05-22T17:16:45.081Z,10.32
2023-05-22T17:19:11.986Z,8.93
2023-05-22T17:21:38.746Z,9.60
2023-05-22T17:24:05.707Z,7.55
2023-05-22T17:26:34.236Z,6.78
2023-05-22T17:29:00.992Z,6.32
2023-05-22T17:31:27.803Z,5.90
2023-05-22T17:33:54.714Z,6.50
2023-05-22T17:36:21.641Z,6.18
2023-05-22T17:38:48.340Z,5.93
2023-05-22T17:41:15.532Z,6.13
2023-05-22T17:43:42.404Z,5.93
2023-05-22T17:46:09.219Z,5.68
2023-05-22T17:48:36.489Z,6.00
2023-05-22T17:51:03.534Z,6.03
2023-05-22T17:53:34.289Z,6.28
2023-05-22T17:56:01.689Z,5.75
2023-05-22T17:58:28.460Z,6.35
2023-05-22T18:00:55.302Z,5.53
2023-05-22T18:03:22.218Z,6.13
2023-05-22T18:05:50.045Z,6.57
2023-05-22T18:08:17.785Z,5.78
2023-05-22T18:10:44.555Z,5.70
2023-05-22T18:13:11.303Z,5.95
2023-05-22T18:15:38.049Z,5.63
2023-05-22T18:18:05.049Z,6.00
2023-05-22T18:20:33.061Z,5.47
2023-05-22T18:23:00.285Z,6.07
2023-05-22T18:25:27.014Z,5.45
2023-05-22T18:27:55.112Z,5.78
2023-05-22T18:30:21.981Z,5.53
2023-05-22T18:32:48.748Z,5.90
2023-05-22T18:35:15.500Z,5.13
2023-05-22T18:37:42.317Z,5.53
2023-05-22T18:40:10.794Z,5.55
2023-05-22T18:42:37.541Z,5.45
2023-05-22T18:45:06.512Z,5.20
2023-05-22T18:47:33.360Z,5.10
2023-05-22T18:50:00.308Z,5.25
2023-05-22T18:52:27.113Z,5.35
2023-05-22T18:54:53.842Z,4.80
2023-05-22T18:57:20.520Z,5.18
2023-05-22T18:59:47.621Z,5.60
2023-05-22T19:02:16.746Z,4.97
2023-05-22T19:04:43.808Z,5.00
2023-05-22T19:07:10.640Z,5.43
2023-05-22T19:09:37.658Z,5.68
2023-05-22T19:12:05.039Z,4.57
2023-05-22T19:14:31.748Z,5.47
2023-05-22T19:17:00.262Z,5.25
2023-05-22T19:19:27.512Z,4.88
2023-05-22T19:21:54.541Z,5.00
2023-05-22T19:24:21.882Z,4.68
2023-05-22T19:26:48.605Z,4.53
2023-05-22T19:29:15.462Z,5.05
2023-05-22T19:31:42.323Z,4.72
2023-05-22T19:34:09.166Z,4.68
2023-05-22T19:36:36.378Z,4.97
2023-05-22T19:39:03.961Z,5.10
2023-05-22T19:41:30.702Z,5.10
2023-05-22T19:43:57.488Z,4.55
2023-05-22T19:46:24.725Z,4.78
2023-05-22T19:48:51.460Z,4.97
2023-05-22T19:51:18.154Z,4.90
2023-05-22T19:53:44.917Z,5.13
2023-05-22T19:56:12.158Z,4.60
2023-05-22T19:58:39.610Z,4.63
2023-05-22T20:01:06.334Z,4.75
2023-05-22T20:03:33.291Z,4.88
2023-05-22T20:06:00.490Z,5.10
2023-05-22T20:08:27.292Z,5.05
2023-05-22T20:10:53.999Z,5.07
2023-05-22T20:13:20.745Z,4.93
2023-05-22T20:15:47.820Z,4.70
2023-05-22T20:18:14.913Z,5.32
2023-05-22T20:20:41.642Z,4.57
2023-05-22T20:23:08.464Z,5.28
2023-05-22T20:25:36.015Z,4.90
2023-05-22T20:28:04.358Z,4.70
2023-05-22T20:30:31.445Z,4.95
2023-05-22T20:32:58.307Z,5.43
2023-05-22T20:35:26.380Z,4.50
2023-05-22T20:37:53.405Z,5.28
2023-05-22T20:40:20.396Z,4.90
2023-05-22T20:42:47.513Z,5.20
2023-05-22T20:45:16.141Z,4.75
2023-05-22T20:47:43.582Z,4.82
2023-05-22T20:50:11.242Z,5.00
2023-05-22T20:52:38.131Z,5.35
2023-05-22T20:55:05.583Z,4.80
2023-05-22T20:57:32.476Z,5.20
2023-05-22T20:59:59.369Z,5.03
2023-05-22T21:02:26.407Z,5.38
2023-05-22T21:04:53.351Z,5.25
2023-05-22T21:07:20.148Z,5.20
2023-05-22T21:09:46.842Z,5.50
2023-05-22T21:12:13.674Z,5.15
2023-05-22T21:14:40.854Z,5.18
2023-05-22T21:17:07.678Z,5.30
2023-05-22T21:19:34.601Z,5.50
2023-05-22T21:25:48.920Z,5.65
2023-05-22T21:28:15.772Z,4.88
2023-05-22T21:30:42.528Z,5.68
2023-05-22T21:33:09.295Z,5.72
2023-05-22T21:35:36.099Z,5.53
2023-05-22T21:38:02.857Z,5.60
2023-05-22T21:40:29.577Z,5.63
2023-05-22T21:42:56.327Z,5.65
2023-05-22T21:45:23.142Z,5.32
2023-05-22T21:47:49.839Z,5.65
2023-05-22T21:50:16.643Z,5.63
2023-05-22T21:52:44.219Z,5.32
2023-05-22T21:55:11.057Z,5.97
2023-05-22T21:57:37.822Z,5.65
2023-05-22T22:00:04.761Z,5.55
2023-05-22T22:02:31.893Z,5.50
2023-05-22T22:04:58.694Z,5.85
2023-05-22T22:07:26.055Z,5.80
2023-05-22T22:09:52.766Z,5.63
2023-05-22T22:12:19.487Z,6.20
2023-05-22T22:14:46.234Z,5.63
2023-05-22T22:17:13.099Z,5.63
2023-05-22T22:19:41.722Z,5.45
2023-05-22T22:22:08.700Z,5.30
2023-05-22T22:24:35.438Z,5.15
2023-05-22T22:27:02.397Z,5.78
2023-05-22T22:29:29.155Z,5.88
2023-05-22T22:31:56.004Z,5.68
2023-05-22T22:34:22.888Z,5.90
2023-05-22T22:36:49.844Z,5.28
2023-05-22T22:39:16.683Z,5.72
2023-05-22T22:41:43.629Z,5.80
2023-05-22T22:44:10.538Z,5.80
2023-05-22T22:46:37.453Z,5.57
2023-05-22T22:49:04.747Z,5.93
2023-05-22T22:51:31.650Z,5.75
2023-05-22T22:53:58.561Z,5.30
2023-05-22T22:56:29.289Z,5.68
2023-05-22T22:58:57.222Z,5.38
2023-05-22T23:01:24.386Z,5.68
2023-05-22T23:03:51.564Z,5.15
2023-05-22T23:06:19.410Z,5.55
2023-05-22T23:08:46.252Z,5.10
2023-05-22T23:11:13.175Z,5.70
2023-05-22T23:13:41.439Z,6.00
2023-05-22T23:16:08.356Z,5.90
2023-05-22T23:18:35.355Z,5.28
2023-05-22T23:21:02.253Z,5.63
2023-05-22T23:23:29.002Z,5.50
2023-05-22T23:25:57.999Z,5.97
2023-05-22T23:28:25.745Z,6.15
2023-05-22T23:30:52.907Z,6.43
2023-05-22T23:33:19.797Z,5.78
2023-05-22T23:35:46.614Z,6.00
2023-05-22T23:38:13.538Z,5.53
2023-05-22T23:40:40.346Z,6.20
2023-05-22T23:43:07.064Z,5.30
2023-05-22T23:45:33.744Z,5.40
2023-05-22T23:48:00.487Z,5.38
2023-05-22T23:50:27.263Z,5.50
2023-05-22T23:52:54.117Z,5.70
2023-05-22T23:55:20.911Z,5.95
2023-05-22T23:57:47.921Z,5.75
